Time,TemperatureF,DewpointF,PressureIn,WindDirection,WindDirectionDegrees,WindSpeedMPH,WindSpeedGustMPH,Humidity,HourlyPrecipIn,Conditions,Clouds,dailyrainin,SoftwareType,DateUTC
2013-08-14 00:03:00,70.3,62.0,-100.00,ENE,75,0.0,2.0,75,-99.99,,,-99.99,WSDL version 423,2013-08-14 04:03:00,
2013-08-14 00:06:00,70.2,62.0,-100.00,East,80,0.5,2.0,76,-99.99,,,-99.99,WSDL version 423,2013-08-14 04:06:00,
2013-08-14 00:09:00,70.2,62.0,-100.00,ENE,68,0.0,1.6,75,-99.99,,,-99.99,WSDL version 423,2013-08-14 04:09:00,
2013-08-14 00:12:00,70.1,61.8,-100.00,ENE,68,0.0,1.6,75,-99.99,,,-99.99,WSDL version 423,2013-08-14 04:12:00,
2013-08-14 00:18:00,69.8,61.6,-100.00,East,79,0.0,0.0,76,-99.99,,,-99.99,WSDL version 423,2013-08-14 04:18:00,
2013-08-14 00:24:00,69.7,61.7,-100.00,East,90,0.0,0.0,76,-99.99,,,-99.99,WSDL version 423,2013-08-14 04:24:00,
2013-08-14 00:30:00,69.6,61.7,-100.00,ESE,113,0.0,2.0,76,-99.99,,,-99.99,WSDL version 423,2013-08-14 04:30:00,
2013-08-14 00:36:00,69.6,62.0,-100.00,East,90,0.8,3.1,76,-99.99,,,-99.99,WSDL version 423,2013-08-14 04:36:00,
2013-08-14 00:42:00,69.4,61.6,-100.00,East,93,0.0,2.7,76,-99.99,,,-99.99,WSDL version 423,2013-08-14 04:42:00,
2013-08-14 00:48:00,69.4,61.4,-100.00,ESE,105,0.4,2.9,75,-99.99,,,-99.99,WSDL version 423,2013-08-14 04:48:00,
2013-08-14 00:54:00,69.4,60.9,-100.00,East,90,2.2,2.9,74,-99.99,,,-99.99,WSDL version 423,2013-08-14 04:54:00,
2013-08-14 01:00:00,69.4,60.7,-100.00,East,90,0.1,2.9,74,-99.99,,,-99.99,WSDL version 423,2013-08-14 05:00:00,
2013-08-14 01:06:00,69.2,60.6,-100.00,ESE,107,0.8,1.6,74,-99.99,,,-99.99,WSDL version 423,2013-08-14 05:06:00,
2013-08-14 01:12:00,69.1,60.5,-100.00,East,100,0.4,1.6,74,-99.99,,,-99.99,WSDL version 423,2013-08-14 05:12:00,
2013-08-14 01:18:00,68.9,60.4,-100.00,ENE,68,1.5,3.4,75,-99.99,,,-99.99,WSDL version 423,2013-08-14 05:18:00,
2013-08-14 01:24:00,68.8,60.6,-100.00,ESE,122,0.0,3.4,75,-99.99,,,-99.99,WSDL version 423,2013-08-14 05:24:00,
2013-08-14 01:30:00,68.7,60.5,-100.00,ESE,119,0.0,1.3,75,-99.99,,,-99.99,WSDL version 423,2013-08-14 05:30:00,
2013-08-14 01:36:00,68.5,60.3,-100.00,ENE,73,0.0,2.5,75,-99.99,,,-99.99,WSDL version 423,2013-08-14 05:36:00,
2013-08-14 01:42:00,68.5,60.2,-100.00,ESE,120,0.9,2.9,75,-99.99,,,-99.99,WSDL version 423,2013-08-14 05:42:00,
2013-08-14 01:48:00,68.4,59.5,-100.00,ESE,106,1.5,2.9,73,-99.99,,,-99.99,WSDL version 423,2013-08-14 05:48:00,
2013-08-14 01:54:00,68.4,58.8,-100.00,East,101,2.3,3.6,71,-99.99,,,-99.99,WSDL version 423,2013-08-14 05:54:00,
2013-08-14 02:00:00,68.2,58.5,-100.00,SE,146,1.2,3.6,71,-99.99,,,-99.99,WSDL version 423,2013-08-14 06:00:00,
2013-08-14 02:06:00,68.2,58.2,-100.00,East,86,0.7,4.0,71,-99.99,,,-99.99,WSDL version 423,2013-08-14 06:06:00,
2013-08-14 02:12:00,68.0,58.3,-100.00,ESE,107,0.7,4.0,71,0.00,,,0.00,WSDL version 423,2013-08-14 06:12:00,
2013-08-14 02:18:00,67.9,58.3,-100.00,East,90,0.0,2.2,72,-99.99,,,-99.99,WSDL version 423,2013-08-14 06:18:00,
2013-08-14 02:24:00,67.8,58.1,-100.00,ESE,116,2.1,3.4,71,-99.99,,,-99.99,WSDL version 423,2013-08-14 06:24:00,
2013-08-14 02:30:00,67.8,58.1,-100.00,East,84,0.8,5.8,71,-99.99,,,-99.99,WSDL version 423,2013-08-14 06:30:00,
2013-08-14 02:36:00,67.6,57.4,-100.00,ESE,122,0.8,5.8,69,-99.99,,,-99.99,WSDL version 423,2013-08-14 06:36:00,
2013-08-14 02:42:00,67.4,56.3,-100.00,East,87,2.2,4.7,68,-99.99,,,-99.99,WSDL version 423,2013-08-14 06:42:00,
2013-08-14 02:48:00,67.2,55.7,-100.00,East,90,2.9,7.4,65,-99.99,,,-99.99,WSDL version 423,2013-08-14 06:48:00,
2013-08-14 02:54:00,66.9,54.5,-100.00,SSE,154,1.1,7.4,66,-99.99,,,-99.99,WSDL version 423,2013-08-14 06:54:00,
2013-08-14 03:00:00,66.7,53.7,-100.00,SE,124,2.9,3.6,63,-99.99,,,-99.99,WSDL version 423,2013-08-14 07:00:00,
2013-08-14 03:06:00,66.4,53.3,-100.00,SE,128,2.4,4.9,61,-99.99,,,-99.99,WSDL version 423,2013-08-14 07:06:00,
2013-08-14 03:12:00,66.2,53.1,-100.00,ESE,113,2.0,4.9,63,-99.99,,,-99.99,WSDL version 423,2013-08-14 07:12:00,
2013-08-14 03:18:00,66.0,52.7,-100.00,SE,126,1.2,4.0,63,-99.99,,,-99.99,WSDL version 423,2013-08-14 07:18:00,
2013-08-14 03:24:00,65.7,52.0,-100.00,SE,135,2.6,5.6,60,-99.99,,,-99.99,WSDL version 423,2013-08-14 07:24:00,
2013-08-14 03:30:00,65.6,51.0,-100.00,NE,45,2.0,5.6,60,-99.99,,,-99.99,WSDL version 423,2013-08-14 07:30:00,
2013-08-14 03:36:00,65.5,50.4,-100.00,ESE,113,3.1,5.6,58,0.00,,,0.00,WSDL version 423,2013-08-14 07:36:00,
2013-08-14 03:42:00,65.2,49.8,-100.00,East,101,4.3,4.3,57,-99.99,,,-99.99,WSDL version 423,2013-08-14 07:42:00,
2013-08-14 03:48:00,65.1,49.3,-100.00,SE,128,3.8,6.3,56,-99.99,,,-99.99,WSDL version 423,2013-08-14 07:48:00,
2013-08-14 03:54:00,64.9,49.1,-100.00,ENE,72,2.2,6.3,57,-99.99,,,-99.99,WSDL version 423,2013-08-14 07:54:00,
2013-08-14 04:00:00,64.6,48.6,-100.00,ESE,113,1.9,6.0,57,-99.99,,,-99.99,WSDL version 423,2013-08-14 08:00:00,
2013-08-14 04:06:00,64.4,49.2,-100.00,SE,128,2.5,3.6,58,-99.99,,,-99.99,WSDL version 423,2013-08-14 08:06:00,
2013-08-14 04:12:00,64.2,48.2,-100.00,East,95,3.8,7.6,55,-99.99,,,-99.99,WSDL version 423,2013-08-14 08:12:00,
2013-08-14 04:18:00,64.1,47.6,-100.00,ESE,109,2.8,7.6,55,-99.99,,,-99.99,WSDL version 423,2013-08-14 08:18:00,
2013-08-14 04:24:00,63.8,47.3,-100.00,East,98,3.2,5.8,55,-99.99,,,-99.99,WSDL version 423,2013-08-14 08:24:00,
2013-08-14 04:30:00,63.6,47.2,-100.00,East,90,3.1,5.4,55,0.00,,,0.00,WSDL version 423,2013-08-14 08:30:00,
2013-08-14 04:36:00,63.4,47.4,-100.00,SE,141,1.0,3.4,56,-99.99,,,-99.99,WSDL version 423,2013-08-14 08:36:00,
2013-08-14 04:42:00,63.1,47.7,-100.00,East,90,1.1,3.1,57,-99.99,,,-99.99,WSDL version 423,2013-08-14 08:42:00,
2013-08-14 04:48:00,62.9,48.0,-100.00,SE,144,0.8,3.1,59,0.00,,,0.00,WSDL version 423,2013-08-14 08:48:00,
2013-08-14 04:54:00,62.6,48.1,-100.00,East,90,0.4,3.1,59,0.00,,,0.00,WSDL version 423,2013-08-14 08:54:00,
2013-08-14 05:00:00,62.4,47.7,-100.00,SE,125,1.3,3.8,59,0.00,,,0.00,WSDL version 423,2013-08-14 09:00:00,
2013-08-14 05:06:00,62.2,47.4,-100.00,North,0,0.0,3.8,59,0.00,,,0.00,WSDL version 423,2013-08-14 09:06:00,
2013-08-14 05:12:00,62.1,47.1,-100.00,ESE,107,1.3,3.4,58,0.00,,,0.00,WSDL version 423,2013-08-14 09:12:00,
2013-08-14 05:18:00,61.9,47.3,-100.00,East,79,0.6,3.4,59,0.00,,,0.00,WSDL version 423,2013-08-14 09:18:00,
2013-08-14 05:24:00,61.7,46.6,-100.00,SSE,158,1.6,3.6,57,0.00,,,0.00,WSDL version 423,2013-08-14 09:24:00,
2013-08-14 05:30:00,61.6,46.4,-100.00,SE,124,2.0,3.6,58,-99.99,,,-99.99,WSDL version 423,2013-08-14 09:30:00,
2013-08-14 05:36:00,61.4,46.5,-100.00,NE,45,0.6,2.9,58,-99.99,,,-99.99,WSDL version 423,2013-08-14 09:36:00,
2013-08-14 05:42:00,61.3,45.8,-100.00,SE,128,1.3,2.9,57,0.00,,,0.00,WSDL version 423,2013-08-14 09:42:00,
2013-08-14 05:48:00,61.3,46.2,-100.00,SE,135,0.0,2.5,58,0.00,,,0.00,WSDL version 423,2013-08-14 09:48:00,
2013-08-14 05:54:00,61.0,46.1,-100.00,East,90,0.0,2.0,58,0.00,,,0.00,WSDL version 423,2013-08-14 09:54:00,
2013-08-14 06:00:00,60.6,46.3,-100.00,East,90,0.0,0.0,60,0.00,,,0.00,WSDL version 423,2013-08-14 10:00:00,
2013-08-14 06:06:00,60.4,46.2,-100.00,East,90,0.0,1.1,59,0.00,,,0.00,WSDL version 423,2013-08-14 10:06:00,
2013-08-14 06:12:00,60.3,46.3,-100.00,East,90,0.0,1.1,60,0.00,,,0.00,WSDL version 423,2013-08-14 10:12:00,
2013-08-14 06:18:00,60.0,46.1,-100.00,ESE,119,0.6,2.7,60,0.00,,,0.00,WSDL version 423,2013-08-14 10:18:00,
2013-08-14 06:24:00,59.8,46.2,-100.00,North,0,0.0,2.7,61,0.00,,,0.00,WSDL version 423,2013-08-14 10:24:00,
2013-08-14 06:30:00,59.5,46.1,-100.00,East,90,0.0,0.0,61,0.00,,,0.00,WSDL version 423,2013-08-14 10:30:00,
2013-08-14 06:36:00,59.4,46.4,-100.00,North,-999,-999.0,-999.0,62,0.00,,,0.00,WSDL version 423,2013-08-14 10:36:00,
2013-08-14 06:42:00,59.5,46.2,-100.00,North,-999,-999.0,-999.0,61,0.00,,,0.00,WSDL version 423,2013-08-14 10:42:00,
2013-08-14 06:48:00,59.7,45.8,-100.00,North,-999,-999.0,-999.0,60,0.00,,,0.00,WSDL version 423,2013-08-14 10:48:00,
2013-08-14 06:54:00,59.7,45.9,-100.00,SE,135,0.0,0.0,60,-99.99,,,-99.99,WSDL version 423,2013-08-14 10:54:00,
2013-08-14 07:00:00,59.8,46.3,-100.00,East,90,0.0,0.0,61,0.00,,,0.00,WSDL version 423,2013-08-14 11:00:00,
2013-08-14 07:06:00,59.7,46.5,-100.00,North,-999,-999.0,-999.0,62,0.00,,,0.00,WSDL version 423,2013-08-14 11:06:00,
2013-08-14 07:12:00,59.6,46.6,-100.00,ESE,113,0.6,1.3,62,0.00,,,0.00,WSDL version 423,2013-08-14 11:12:00,
2013-08-14 07:18:00,59.9,46.9,-100.00,North,-999,-999.0,-999.0,62,0.00,,,0.00,WSDL version 423,2013-08-14 11:18:00,
2013-08-14 07:24:00,60.2,47.2,-100.00,North,-999,-999.0,-999.0,62,0.00,,,0.00,WSDL version 423,2013-08-14 11:24:00,
2013-08-14 07:30:00,60.5,47.4,-100.00,East,90,1.1,3.8,62,0.00,,,0.00,WSDL version 423,2013-08-14 11:30:00,
2013-08-14 07:36:00,60.7,47.1,-100.00,ESE,113,1.2,3.8,60,0.00,,,0.00,WSDL version 423,2013-08-14 11:36:00,
2013-08-14 07:42:00,60.9,46.8,-100.00,North,-999,-999.0,-999.0,59,0.00,,,0.00,WSDL version 423,2013-08-14 11:42:00,
2013-08-14 07:48:00,61.1,46.6,-100.00,ESE,113,2.0,2.7,59,0.00,,,0.00,WSDL version 423,2013-08-14 11:48:00,
2013-08-14 07:54:00,61.3,46.4,-100.00,North,-999,-999.0,-999.0,57,0.00,,,0.00,WSDL version 423,2013-08-14 11:54:00,
2013-08-14 08:00:00,61.4,46.5,-100.00,West,270,2.0,0.0,58,0.00,,,0.00,WSDL version 423,2013-08-14 12:00:00,
2013-08-14 08:06:00,61.7,46.4,-100.00,North,-999,-999.0,-999.0,57,0.00,,,0.00,WSDL version 423,2013-08-14 12:06:00,
2013-08-14 08:12:00,61.7,46.0,-100.00,North,0,0.0,2.7,57,0.00,,,0.00,WSDL version 423,2013-08-14 12:12:00,
2013-08-14 08:18:00,61.9,45.4,-100.00,North,-999,-999.0,-999.0,56,0.00,,,0.00,WSDL version 423,2013-08-14 12:18:00,
2013-08-14 08:24:00,62.2,45.1,-100.00,East,90,2.7,2.7,53,0.00,,,0.00,WSDL version 423,2013-08-14 12:24:00,
2013-08-14 08:30:00,62.4,44.9,-100.00,North,360,3.8,3.8,53,-99.99,,,-99.99,WSDL version 423,2013-08-14 12:30:00,
2013-08-14 08:36:00,62.7,45.0,-100.00,SE,135,0.9,3.1,53,0.00,,,0.00,WSDL version 423,2013-08-14 12:36:00,
2013-08-14 08:42:00,62.9,44.1,-100.00,North,-999,-999.0,-999.0,49,0.00,,,0.00,WSDL version 423,2013-08-14 12:42:00,
2013-08-14 08:48:00,63.2,44.5,-100.00,South,180,0.9,1.6,51,0.00,,,0.00,WSDL version 423,2013-08-14 12:48:00,
2013-08-14 08:54:00,63.5,44.7,-100.00,North,-999,-999.0,-999.0,50,0.00,,,0.00,WSDL version 423,2013-08-14 12:54:00,
2013-08-14 09:00:00,63.7,44.6,-100.00,North,-999,-999.0,-999.0,50,0.00,,,0.00,WSDL version 423,2013-08-14 13:00:00,
2013-08-14 09:06:00,63.9,43.8,-100.00,SE,135,5.8,6.5,46,0.00,,,0.00,WSDL version 423,2013-08-14 13:06:00,
2013-08-14 09:12:00,64.0,43.6,-100.00,East,90,2.7,6.5,48,0.00,,,0.00,WSDL version 423,2013-08-14 13:12:00,
2013-08-14 09:18:00,64.2,43.5,-100.00,SE,124,2.2,5.4,48,0.00,,,0.00,WSDL version 423,2013-08-14 13:18:00,
2013-08-14 09:24:00,64.4,44.2,-100.00,East,101,3.2,3.6,47,0.00,,,0.00,WSDL version 423,2013-08-14 13:24:00,
2013-08-14 09:30:00,64.5,43.5,-100.00,SSE,150,3.1,6.9,47,0.00,,,0.00,WSDL version 423,2013-08-14 13:30:00,
2013-08-14 09:36:00,64.9,43.8,-100.00,ESE,113,2.8,6.9,46,0.00,,,0.00,WSDL version 423,2013-08-14 13:36:00,
2013-08-14 09:42:00,65.0,43.3,-100.00,East,90,3.4,6.9,45,-99.99,,,-99.99,WSDL version 423,2013-08-14 13:42:00,
2013-08-14 09:48:00,65.1,43.7,-100.00,SSE,150,2.9,6.9,46,-99.99,,,-99.99,WSDL version 423,2013-08-14 13:48:00,
2013-08-14 09:54:00,65.3,43.6,-100.00,ESE,104,3.4,7.4,45,0.00,,,0.00,WSDL version 423,2013-08-14 13:54:00,
2013-08-14 10:00:00,65.6,44.3,-100.00,SSE,158,2.5,7.4,47,0.00,,,0.00,WSDL version 423,2013-08-14 14:00:00,
2013-08-14 10:06:00,66.0,45.2,-100.00,North,0,0.0,7.2,47,0.00,,,0.00,WSDL version 423,2013-08-14 14:06:00,
2013-08-14 10:12:00,66.2,44.4,-100.00,ESE,108,3.0,7.2,44,0.00,,,0.00,WSDL version 423,2013-08-14 14:12:00,
2013-08-14 10:18:00,66.4,44.4,-100.00,ESE,122,2.3,5.8,46,-99.99,,,-99.99,WSDL version 423,2013-08-14 14:18:00,
2013-08-14 10:24:00,66.6,44.4,-100.00,SSE,158,3.2,3.8,44,0.00,,,0.00,WSDL version 423,2013-08-14 14:24:00,
2013-08-14 10:30:00,66.7,44.5,-100.00,ESE,113,3.7,5.6,44,0.00,,,0.00,WSDL version 423,2013-08-14 14:30:00,
2013-08-14 10:36:00,66.9,45.3,-100.00,SE,135,2.9,4.3,46,-99.99,,,-99.99,WSDL version 423,2013-08-14 14:36:00,
2013-08-14 10:42:00,67.1,44.5,-100.00,SE,124,2.5,5.8,44,0.00,,,0.00,WSDL version 423,2013-08-14 14:42:00,
2013-08-14 10:48:00,67.3,45.2,-100.00,SE,143,1.7,3.6,45,-99.99,,,-99.99,WSDL version 423,2013-08-14 14:48:00,
2013-08-14 10:54:00,67.7,45.2,-100.00,East,90,3.4,8.5,43,-99.99,,,-99.99,WSDL version 423,2013-08-14 14:54:00,
2013-08-14 11:00:00,67.8,45.5,-100.00,East,90,1.5,8.5,45,0.00,,,0.00,WSDL version 423,2013-08-14 15:00:00,
2013-08-14 11:06:00,68.2,45.7,-100.00,SE,135,0.7,4.9,45,0.00,,,0.00,WSDL version 423,2013-08-14 15:06:00,
2013-08-14 11:12:00,68.5,46.1,-100.00,SSE,154,2.3,4.9,45,-99.99,,,-99.99,WSDL version 423,2013-08-14 15:12:00,
2013-08-14 11:18:00,68.7,46.3,-100.00,ENE,71,1.3,4.0,44,-99.99,,,-99.99,WSDL version 423,2013-08-14 15:18:00,
2013-08-14 11:24:00,68.8,46.0,-100.00,ESE,109,3.2,5.6,43,0.00,,,0.00,WSDL version 423,2013-08-14 15:24:00,
2013-08-14 11:30:00,68.7,45.0,-100.00,East,94,3.8,5.8,42,-99.99,,,-99.99,WSDL version 423,2013-08-14 15:30:00,
2013-08-14 11:36:00,68.8,45.5,-100.00,East,98,4.6,12.1,43,0.00,,,0.00,WSDL version 423,2013-08-14 15:36:00,
2013-08-14 11:42:00,69.0,45.6,-100.00,ESE,110,2.9,12.1,43,0.00,,,0.00,WSDL version 423,2013-08-14 15:42:00,
2013-08-14 11:48:00,69.4,46.0,-100.00,WSW,243,2.1,6.0,43,0.00,,,0.00,WSDL version 423,2013-08-14 15:48:00,
2013-08-14 11:54:00,69.4,46.0,-100.00,East,90,1.7,6.0,43,0.00,,,0.00,WSDL version 423,2013-08-14 15:54:00,
2013-08-14 12:00:00,69.7,46.4,-100.00,East,96,1.9,4.9,43,0.00,,,0.00,WSDL version 423,2013-08-14 16:00:00,
2013-08-14 12:06:00,70.0,47.0,-100.00,North,10,1.7,4.9,44,-99.99,,,-99.99,WSDL version 423,2013-08-14 16:06:00,
2013-08-14 12:12:00,70.6,47.6,-100.00,SSE,158,2.9,4.9,44,0.00,,,0.00,WSDL version 423,2013-08-14 16:12:00,
2013-08-14 12:18:00,71.1,47.4,-100.00,ESE,103,3.2,7.8,42,0.00,,,0.00,WSDL version 423,2013-08-14 16:18:00,
2013-08-14 12:24:00,70.5,46.3,-100.00,ESE,113,3.4,7.8,42,-99.99,,,-99.99,WSDL version 423,2013-08-14 16:24:00,
2013-08-14 12:30:00,70.2,44.5,-100.00,East,90,3.2,7.2,39,-99.99,,,-99.99,WSDL version 423,2013-08-14 16:30:00,
2013-08-14 12:36:00,70.5,44.4,-100.00,East,90,3.0,12.1,40,0.00,,,0.00,WSDL version 423,2013-08-14 16:36:00,
2013-08-14 12:42:00,70.9,45.9,-100.00,SSE,161,3.3,13.0,41,0.00,,,0.00,WSDL version 423,2013-08-14 16:42:00,
2013-08-14 12:48:00,71.0,45.4,-100.00,East,84,3.0,13.0,39,-99.99,,,-99.99,WSDL version 423,2013-08-14 16:48:00,
2013-08-14 12:53:00,70.9,45.3,-100.00,ENE,73,2.3,10.3,41,-99.99,,,-99.99,WSDL version 423,2013-08-14 16:53:00,
2013-08-14 12:59:00,71.2,45.4,-100.00,SE,132,3.6,10.3,40,-99.99,,,-99.99,WSDL version 423,2013-08-14 16:59:00,
2013-08-14 13:06:00,71.4,45.0,-100.00,East,84,4.4,10.1,38,-99.99,,,-99.99,WSDL version 423,2013-08-14 17:06:00,
2013-08-14 13:12:00,71.8,46.3,-100.00,SE,133,2.0,10.1,40,-99.99,,,-99.99,WSDL version 423,2013-08-14 17:12:00,
2013-08-14 13:18:00,72.2,46.7,-100.00,ESE,119,2.8,9.6,40,0.00,,,0.00,WSDL version 423,2013-08-14 17:18:00,
2013-08-14 13:24:00,72.3,45.7,-100.00,SE,141,4.3,10.7,38,-99.99,,,-99.99,WSDL version 423,2013-08-14 17:24:00,
2013-08-14 13:30:00,72.4,46.2,-100.00,SE,141,1.8,10.7,40,-99.99,,,-99.99,WSDL version 423,2013-08-14 17:30:00,
2013-08-14 13:36:00,72.7,45.9,-100.00,SE,145,3.5,4.9,39,-99.99,,,-99.99,WSDL version 423,2013-08-14 17:36:00,
2013-08-14 13:42:00,73.1,46.7,-100.00,East,88,3.9,12.1,40,-99.99,,,-99.99,WSDL version 423,2013-08-14 17:42:00,
2013-08-14 13:48:00,73.4,46.5,-100.00,ESE,122,3.1,12.1,38,-99.99,,,-99.99,WSDL version 423,2013-08-14 17:48:00,
2013-08-14 13:56:00,73.2,45.8,-100.00,ESE,110,3.3,12.1,37,0.00,,,0.00,WSDL version 423,2013-08-14 17:56:00,
2013-08-14 14:02:00,73.8,46.5,-100.00,ESE,110,2.5,6.3,38,-99.99,,,-99.99,WSDL version 423,2013-08-14 18:02:00,
2013-08-14 14:08:00,73.8,45.5,-100.00,ESE,122,3.4,7.6,37,-99.99,,,-99.99,WSDL version 423,2013-08-14 18:08:00,
2013-08-14 14:14:00,73.4,45.2,-100.00,SE,141,3.6,10.7,37,-99.99,,,-99.99,WSDL version 423,2013-08-14 18:14:00,
2013-08-14 14:24:00,73.5,45.3,-100.00,ESE,121,5.1,14.5,37,0.00,,,0.00,WSDL version 423,2013-08-14 18:24:00,
2013-08-14 14:30:00,73.1,46.0,-100.00,East,100,4.1,14.5,37,-99.99,,,-99.99,WSDL version 423,2013-08-14 18:30:00,
2013-08-14 14:35:00,73.3,46.2,-100.00,ESE,107,2.9,10.5,38,0.00,,,0.00,WSDL version 423,2013-08-14 18:35:00,
2013-08-14 14:42:00,73.0,44.9,-100.00,ESE,118,3.0,10.5,38,-99.99,,,-99.99,WSDL version 423,2013-08-14 18:42:00,
2013-08-14 14:49:00,73.3,46.3,-100.00,East,96,3.0,10.5,38,0.00,,,0.00,WSDL version 423,2013-08-14 18:49:00,
2013-08-14 14:55:00,73.8,46.0,-100.00,East,96,3.5,10.5,37,0.00,,,0.00,WSDL version 423,2013-08-14 18:55:00,
2013-08-14 15:01:00,74.0,46.5,-100.00,SE,124,2.9,9.6,37,-99.99,,,-99.99,WSDL version 423,2013-08-14 19:01:00,
2013-08-14 15:07:00,73.4,46.4,-100.00,SW,219,0.9,9.6,38,0.00,,,0.00,WSDL version 423,2013-08-14 19:07:00,
2013-08-14 15:17:00,74.1,45.6,-100.00,ESE,113,3.3,10.7,36,0.00,,,0.00,WSDL version 423,2013-08-14 19:17:00,
2013-08-14 15:23:00,74.3,46.8,-100.00,SSE,158,3.0,9.6,37,-99.99,,,-99.99,WSDL version 423,2013-08-14 19:23:00,
2013-08-14 15:31:00,74.6,46.8,-100.00,ESE,123,2.3,6.5,38,-99.99,,,-99.99,WSDL version 423,2013-08-14 19:31:00,
2013-08-14 15:37:00,74.8,46.5,-100.00,East,101,2.8,6.7,36,-99.99,,,-99.99,WSDL version 423,2013-08-14 19:37:00,
2013-08-14 15:45:00,74.5,46.1,-100.00,South,174,3.2,9.4,36,0.00,,,0.00,WSDL version 423,2013-08-14 19:45:00,
2013-08-14 15:53:00,74.6,46.0,-100.00,SE,143,3.2,10.7,36,-99.99,,,-99.99,WSDL version 423,2013-08-14 19:53:00,
2013-08-14 15:59:00,74.5,46.5,-100.00,SE,135,3.1,7.8,38,-99.99,,,-99.99,WSDL version 423,2013-08-14 19:59:00,
2013-08-14 16:05:00,74.7,46.3,-100.00,SE,127,2.6,7.8,36,-99.99,,,-99.99,WSDL version 423,2013-08-14 20:05:00,
2013-08-14 16:11:00,74.1,45.6,-100.00,East,79,4.0,10.7,37,-99.99,,,-99.99,WSDL version 423,2013-08-14 20:11:00,
2013-08-14 16:17:00,74.0,45.9,-100.00,SE,141,3.3,10.7,37,0.00,,,0.00,WSDL version 423,2013-08-14 20:17:00,
2013-08-14 16:26:00,74.7,46.7,-100.00,SE,141,3.6,9.6,38,0.00,,,0.00,WSDL version 423,2013-08-14 20:26:00,
2013-08-14 16:32:00,75.4,47.4,-100.00,East,93,2.4,7.6,37,-99.99,,,-99.99,WSDL version 423,2013-08-14 20:32:00,
2013-08-14 16:38:00,75.4,46.7,-100.00,SE,145,2.5,13.4,37,0.00,,,0.00,WSDL version 423,2013-08-14 20:38:00,
2013-08-14 16:48:00,74.7,46.7,-100.00,SE,135,3.3,8.7,37,-99.99,,,-99.99,WSDL version 423,2013-08-14 20:48:00,
2013-08-14 16:54:00,74.6,46.7,-100.00,SE,133,3.3,8.7,37,0.00,,,0.00,WSDL version 423,2013-08-14 20:54:00,
2013-08-14 17:00:00,74.8,46.5,-100.00,East,88,4.0,8.1,37,0.00,,,0.00,WSDL version 423,2013-08-14 21:00:00,
2013-08-14 17:06:00,74.6,46.9,-100.00,NE,38,3.0,10.5,37,0.00,,,0.00,WSDL version 423,2013-08-14 21:06:00,
2013-08-14 17:12:00,74.5,46.9,-100.00,East,96,2.2,10.5,38,0.00,,,0.00,WSDL version 423,2013-08-14 21:12:00,
2013-08-14 17:18:00,74.8,47.3,-100.00,East,93,2.1,6.3,38,0.00,,,0.00,WSDL version 423,2013-08-14 21:18:00,
2013-08-14 17:24:00,75.4,47.8,-100.00,SE,129,2.6,5.8,38,-99.99,,,-99.99,WSDL version 423,2013-08-14 21:24:00,
2013-08-14 17:30:00,75.0,47.8,-100.00,SSE,151,1.8,10.7,39,0.00,,,0.00,WSDL version 423,2013-08-14 21:30:00,
2013-08-14 17:36:00,74.8,47.6,-100.00,ENE,68,2.4,7.4,39,0.00,,,0.00,WSDL version 423,2013-08-14 21:36:00,
2013-08-14 17:42:00,75.9,48.6,-100.00,SE,143,2.3,4.0,37,0.00,,,0.00,WSDL version 423,2013-08-14 21:42:00,
2013-08-14 17:50:00,75.7,47.0,-100.00,ESE,107,3.6,8.5,36,-99.99,,,-99.99,WSDL version 423,2013-08-14 21:50:00,
2013-08-14 17:56:00,75.9,47.7,-100.00,ESE,119,4.5,9.2,37,0.00,,,0.00,WSDL version 423,2013-08-14 21:56:00,
2013-08-14 18:02:00,75.6,47.4,-100.00,East,96,2.7,9.2,37,0.00,,,0.00,WSDL version 423,2013-08-14 22:02:00,
2013-08-14 18:08:00,75.4,47.7,-100.00,East,82,2.7,7.2,37,0.00,,,0.00,WSDL version 423,2013-08-14 22:08:00,
2013-08-14 18:14:00,75.5,47.7,-100.00,ESE,113,3.5,6.5,37,0.00,,,0.00,WSDL version 423,2013-08-14 22:14:00,
2013-08-14 18:20:00,75.4,47.1,-100.00,SE,130,3.5,6.5,36,0.00,,,0.00,WSDL version 423,2013-08-14 22:20:00,
2013-08-14 18:26:00,75.4,47.4,-100.00,ENE,65,2.0,6.0,38,0.00,,,0.00,WSDL version 423,2013-08-14 22:26:00,
2013-08-14 18:32:00,75.7,47.5,-100.00,SE,132,2.7,5.8,37,0.00,,,0.00,WSDL version 423,2013-08-14 22:32:00,
2013-08-14 18:38:00,75.9,47.6,-100.00,SSE,158,1.2,5.8,37,0.00,,,0.00,WSDL version 423,2013-08-14 22:38:00,
2013-08-14 18:44:00,76.3,47.7,-100.00,SE,141,1.7,4.3,36,0.00,,,0.00,WSDL version 423,2013-08-14 22:44:00,
2013-08-14 18:50:00,75.4,45.7,-100.00,ESE,118,3.7,10.1,35,0.00,,,0.00,WSDL version 423,2013-08-14 22:50:00,
2013-08-14 18:56:00,74.7,45.8,-100.00,ESE,113,2.6,10.1,36,0.00,,,0.00,WSDL version 423,2013-08-14 22:56:00,
2013-08-14 19:02:00,73.7,45.7,-100.00,ESE,103,1.7,6.0,37,0.00,,,0.00,WSDL version 423,2013-08-14 23:02:00,
2013-08-14 19:08:00,72.7,44.8,-100.00,ESE,113,3.4,7.8,37,0.00,,,0.00,WSDL version 423,2013-08-14 23:08:00,
2013-08-14 19:14:00,72.1,44.5,-100.00,ESE,109,1.3,11.4,37,0.00,,,0.00,WSDL version 423,2013-08-14 23:14:00,
2013-08-14 19:20:00,71.6,44.1,-100.00,ESE,119,2.2,5.6,38,0.00,,,0.00,WSDL version 423,2013-08-14 23:20:00,
2013-08-14 19:26:00,71.2,44.1,-100.00,ESE,110,2.5,7.8,37,0.00,,,0.00,WSDL version 423,2013-08-14 23:26:00,
2013-08-14 19:32:00,70.8,43.9,-100.00,SE,135,2.1,7.8,38,0.00,,,0.00,WSDL version 423,2013-08-14 23:32:00,
2013-08-14 19:38:00,70.5,43.7,-100.00,ESE,109,3.7,6.3,38,0.00,,,0.00,WSDL version 423,2013-08-14 23:38:00,
2013-08-14 19:44:00,70.2,44.3,-100.00,SE,127,1.4,6.3,40,0.00,,,0.00,WSDL version 423,2013-08-14 23:44:00,
2013-08-14 19:50:00,69.8,44.5,-100.00,East,101,2.0,4.0,40,0.00,,,0.00,WSDL version 423,2013-08-14 23:50:00,
2013-08-14 19:56:00,69.6,45.2,-100.00,SE,129,1.0,3.8,42,0.00,,,0.00,WSDL version 423,2013-08-14 23:56:00,
2013-08-14 20:02:00,69.4,45.3,-100.00,SE,129,0.7,2.9,42,0.00,,,0.00,WSDL version 423,2013-08-15 00:02:00,
2013-08-14 20:08:00,69.1,45.2,-100.00,ESE,117,1.8,3.1,42,-99.99,,,-99.99,WSDL version 423,2013-08-15 00:08:00,
2013-08-14 20:14:00,69.0,45.5,-100.00,WSW,250,0.0,3.1,43,0.00,,,0.00,WSDL version 423,2013-08-15 00:14:00,
2013-08-14 20:20:00,68.6,45.3,-100.00,SE,135,0.0,2.5,43,0.00,,,0.00,WSDL version 423,2013-08-15 00:20:00,
2013-08-14 20:26:00,68.4,45.1,-100.00,WNW,300,0.0,1.1,43,0.00,,,0.00,WSDL version 423,2013-08-15 00:26:00,
2013-08-14 20:32:00,68.0,45.0,-100.00,West,270,0.0,1.1,44,0.00,,,0.00,WSDL version 423,2013-08-15 00:32:00,
2013-08-14 20:38:00,67.5,44.9,-100.00,West,270,0.0,0.0,44,0.00,,,0.00,WSDL version 423,2013-08-15 00:38:00,
2013-08-14 20:44:00,67.1,45.0,-100.00,West,270,0.0,0.0,45,0.00,,,0.00,WSDL version 423,2013-08-15 00:44:00,
2013-08-14 20:50:00,66.7,44.7,-100.00,South,191,0.0,0.0,45,0.00,,,0.00,WSDL version 423,2013-08-15 00:50:00,
2013-08-14 20:56:00,66.6,45.1,-100.00,South,180,0.0,0.0,46,0.00,,,0.00,WSDL version 423,2013-08-15 00:56:00,
2013-08-14 21:02:00,66.4,45.1,-100.00,South,180,0.0,0.0,46,0.00,,,0.00,WSDL version 423,2013-08-15 01:02:00,
2013-08-14 21:08:00,66.4,45.0,-100.00,South,180,0.0,0.0,46,0.00,,,0.00,WSDL version 423,2013-08-15 01:08:00,
2013-08-14 21:14:00,66.2,44.8,-100.00,South,177,0.0,1.3,46,0.00,,,0.00,WSDL version 423,2013-08-15 01:14:00,
2013-08-14 21:20:00,66.0,45.2,-100.00,SSE,158,0.0,1.3,47,0.00,,,0.00,WSDL version 423,2013-08-15 01:20:00,
2013-08-14 21:26:00,65.9,45.1,-100.00,South,172,0.0,0.0,47,0.00,,,0.00,WSDL version 423,2013-08-15 01:26:00,
2013-08-14 21:32:00,65.7,45.2,-100.00,SE,141,0.0,1.1,48,0.00,,,0.00,WSDL version 423,2013-08-15 01:32:00,
2013-08-14 21:38:00,65.5,45.3,-100.00,NE,51,0.0,1.1,48,0.00,,,0.00,WSDL version 423,2013-08-15 01:38:00,
2013-08-14 21:44:00,65.2,45.0,-100.00,ENE,71,0.0,0.9,48,0.00,,,0.00,WSDL version 423,2013-08-15 01:44:00,
2013-08-14 21:50:00,65.1,45.0,-100.00,East,90,0.0,0.9,49,0.00,,,0.00,WSDL version 423,2013-08-15 01:50:00,
2013-08-14 21:56:00,65.0,45.4,-100.00,SE,135,0.0,0.9,49,0.00,,,0.00,WSDL version 423,2013-08-15 01:56:00,
2013-08-14 22:02:00,64.6,45.0,-100.00,SE,135,0.0,0.0,49,0.00,,,0.00,WSDL version 423,2013-08-15 02:02:00,
2013-08-14 22:08:00,64.3,45.1,-100.00,SE,135,0.0,0.9,50,0.00,,,0.00,WSDL version 423,2013-08-15 02:08:00,
2013-08-14 22:14:00,64.3,45.4,-100.00,SE,135,0.0,2.2,50,0.00,,,0.00,WSDL version 423,2013-08-15 02:14:00,
2013-08-14 22:20:00,64.2,45.2,-100.00,East,79,0.0,2.2,50,0.00,,,0.00,WSDL version 423,2013-08-15 02:20:00,
2013-08-14 22:26:00,64.1,45.1,-100.00,ESE,113,0.0,0.0,50,0.00,,,0.00,WSDL version 423,2013-08-15 02:26:00,
2013-08-14 22:32:00,63.8,45.0,-100.00,ESE,113,0.0,0.0,51,0.00,,,0.00,WSDL version 423,2013-08-15 02:32:00,
2013-08-14 22:38:00,63.6,45.2,-100.00,ESE,113,0.0,0.0,51,0.00,,,0.00,WSDL version 423,2013-08-15 02:38:00,
2013-08-14 22:44:00,63.5,45.1,-100.00,ESE,121,0.6,2.5,51,0.00,,,0.00,WSDL version 423,2013-08-15 02:44:00,
2013-08-14 22:50:00,63.5,45.1,-100.00,East,90,0.0,2.7,52,0.00,,,0.00,WSDL version 423,2013-08-15 02:50:00,
2013-08-14 22:56:00,63.3,44.9,-100.00,SE,138,0.5,2.2,51,0.00,,,0.00,WSDL version 423,2013-08-15 02:56:00,
2013-08-14 23:02:00,63.2,44.8,-100.00,SE,135,0.0,2.2,51,0.00,,,0.00,WSDL version 423,2013-08-15 03:02:00,
2013-08-14 23:08:00,62.8,44.9,-100.00,East,84,0.0,0.0,52,0.00,,,0.00,WSDL version 423,2013-08-15 03:08:00,
2013-08-14 23:14:00,62.6,44.8,-100.00,SE,135,0.0,0.0,52,0.00,,,0.00,WSDL version 423,2013-08-15 03:14:00,
2013-08-14 23:20:00,62.5,44.7,-100.00,East,98,0.1,2.2,53,0.00,,,0.00,WSDL version 423,2013-08-15 03:20:00,
2013-08-14 23:26:00,62.4,44.8,-100.00,East,90,0.0,2.2,53,0.00,,,0.00,WSDL version 423,2013-08-15 03:26:00,
2013-08-14 23:32:00,62.3,45.0,-100.00,East,90,0.0,1.1,53,0.00,,,0.00,WSDL version 423,2013-08-15 03:32:00,
2013-08-14 23:38:00,62.1,44.8,-100.00,NE,45,0.0,0.0,53,0.00,,,0.00,WSDL version 423,2013-08-15 03:38:00,
2013-08-14 23:44:00,61.8,44.5,-100.00,North,360,0.0,0.0,53,0.00,,,0.00,WSDL version 423,2013-08-15 03:44:00,
2013-08-14 23:50:00,61.5,44.3,-100.00,North,360,0.0,0.0,54,0.00,,,0.00,WSDL version 423,2013-08-15 03:50:00,
2013-08-14 23:56:00,61.3,44.5,-100.00,North,360,0.0,0.0,54,0.00,,,0.00,WSDL version 423,2013-08-15 03:56:00,